createdAt,value
2022-08-26T00:01:55.856Z,100548.66
2022-08-26T00:04:25.223Z,100555.81
2022-08-26T00:06:54.115Z,100551.69
2022-08-26T00:09:21.746Z,100548.66
2022-08-26T00:11:49.233Z,100554.97
2022-08-26T00:14:18.565Z,100551.41
2022-08-26T00:16:47.920Z,100558.59
2022-08-26T00:19:34.758Z,100550.31
2022-08-26T00:22:02.530Z,100548.38
2022-08-26T00:24:29.987Z,100543.94
2022-08-26T00:27:01.443Z,100539.28
2022-08-26T00:29:30.410Z,100542.03
2022-08-26T00:32:02.828Z,100550.59
2022-08-26T00:34:31.556Z,100547.56
2022-08-26T00:36:58.975Z,100548.66
2022-08-26T00:39:26.820Z,100543.13
2022-08-26T00:41:55.550Z,100547.56
2022-08-26T00:44:23.064Z,100547.25
2022-08-26T00:46:53.429Z,100546.72
2022-08-26T00:49:31.278Z,100537.63
2022-08-26T00:51:59.041Z,100534.88
2022-08-26T00:54:27.556Z,100525.78
2022-08-26T00:57:00.764Z,100536.81
2022-08-26T00:59:29.305Z,100534.88
2022-08-26T01:02:02.812Z,100536.81
2022-08-26T01:04:30.815Z,100536.00
2022-08-26T01:06:58.608Z,100533.22
2022-08-26T01:09:26.070Z,100526.06
2022-08-26T01:11:55.574Z,100533.22
2022-08-26T01:14:23.069Z,100528.53
2022-08-26T01:16:51.147Z,100523.03
2022-08-26T01:19:43.523Z,100520.53
2022-08-26T01:22:28.208Z,100516.69
2022-08-26T01:24:58.763Z,100511.19
2022-08-26T01:27:32.522Z,100511.19
2022-08-26T01:30:00.443Z,100504.00
2022-08-26T01:32:28.555Z,100506.50
2022-08-26T01:34:58.613Z,100511.19
2022-08-26T01:37:32.894Z,100504.00
2022-08-26T01:40:01.557Z,100511.19
2022-08-26T01:42:29.907Z,100513.94
2022-08-26T01:45:05.031Z,100504.28
2022-08-26T01:47:32.444Z,100500.44
2022-08-26T01:50:01.289Z,100500.44
2022-08-26T01:52:30.450Z,100510.34
2022-08-26T01:54:58.428Z,100504.00
2022-08-26T01:57:26.343Z,100502.06
2022-08-26T01:59:55.674Z,100500.44
2022-08-26T02:02:28.868Z,100497.66
2022-08-26T02:05:01.898Z,100502.38
2022-08-26T02:07:29.318Z,100505.13
2022-08-26T02:09:56.927Z,100505.13
2022-08-26T02:12:24.652Z,100504.81
2022-08-26T02:14:54.775Z,100511.44
2022-08-26T02:17:26.538Z,100509.50
2022-08-26T02:19:53.962Z,100504.81
2022-08-26T02:22:22.899Z,100506.75
2022-08-26T02:24:57.183Z,100498.75
2022-08-26T02:27:32.803Z,100498.50
2022-08-26T02:30:12.859Z,100503.19
2022-08-26T02:32:41.375Z,100498.50
2022-08-26T02:35:09.881Z,100504.28
2022-08-26T02:37:37.357Z,100499.63
2022-08-26T02:40:06.552Z,100492.97
2022-08-26T02:42:34.093Z,100496.84
2022-08-26T02:45:01.532Z,100488.59
2022-08-26T02:47:30.150Z,100494.09
2022-08-26T02:49:59.869Z,100495.72
2022-08-26T02:52:27.295Z,100484.97
2022-08-26T02:54:55.684Z,100494.91
2022-08-26T02:57:25.038Z,100486.66
2022-08-26T02:59:52.448Z,100480.31
2022-08-26T03:02:19.985Z,100479.19
2022-08-26T03:04:58.134Z,100479.19
2022-08-26T03:07:31.027Z,100470.94
2022-08-26T03:09:59.972Z,100469.00
2022-08-26T03:12:27.386Z,100469.28
2022-08-26T03:14:55.135Z,100469.28
2022-08-26T03:17:22.570Z,100473.69
2022-08-26T03:19:56.979Z,100476.44
2022-08-26T03:22:25.663Z,100471.75
2022-08-26T03:24:54.614Z,100466.53
2022-08-26T03:27:25.005Z,100464.59
2022-08-26T03:30:11.988Z,100466.53
2022-08-26T03:32:44.196Z,100464.31
2022-08-26T03:35:12.462Z,100453.56
2022-08-26T03:37:39.960Z,100460.72
2022-08-26T03:40:09.965Z,100455.50
2022-08-26T03:42:39.283Z,100457.16
2022-08-26T03:45:11.925Z,100457.16
2022-08-26T03:47:39.600Z,100467.09
2022-08-26T03:50:07.954Z,100469.84
2022-08-26T03:52:35.707Z,100472.59
2022-08-26T03:55:06.990Z,100465.41
2022-08-26T03:57:34.485Z,100469.00
2022-08-26T04:00:02.204Z,100462.66
2022-08-26T04:02:35.999Z,100467.31
2022-08-26T04:05:03.703Z,100465.41
2022-08-26T04:07:32.054Z,100467.63
2022-08-26T04:10:00.592Z,100463.47
2022-08-26T04:12:28.036Z,100471.75
2022-08-26T04:14:55.541Z,100461.56
2022-08-26T04:17:26.234Z,100464.31
2022-08-26T04:19:56.374Z,100464.59
2022-08-26T04:22:25.071Z,100466.22
2022-08-26T04:24:52.871Z,100466.22
2022-08-26T04:27:23.620Z,100467.34
2022-08-26T04:29:55.359Z,100463.78
2022-08-26T04:32:23.059Z,100464.31
2022-08-26T04:34:50.520Z,100457.97
2022-08-26T04:37:18.574Z,100461.56
2022-08-26T04:39:46.044Z,100467.09
2022-08-26T04:42:13.894Z,100465.41
2022-08-26T04:44:43.945Z,100459.09
2022-08-26T04:47:11.383Z,100463.78
2022-08-26T04:49:38.889Z,100459.91
2022-08-26T04:52:06.360Z,100466.22
2022-08-26T04:54:35.257Z,100463.47
2022-08-26T04:57:02.793Z,100466.22
2022-08-26T04:59:30.313Z,100461.56
2022-08-26T05:01:59.680Z,100462.66
2022-08-26T05:04:27.244Z,100467.34
2022-08-26T05:06:59.237Z,100463.47
2022-08-26T05:09:30.441Z,100459.91
2022-08-26T05:11:57.990Z,100459.91
2022-08-26T05:14:25.474Z,100471.75
2022-08-26T05:16:53.957Z,100457.44
2022-08-26T05:19:21.398Z,100468.19
2022-08-26T05:21:49.323Z,100472.88
2022-08-26T05:24:17.813Z,100469.28
2022-08-26T05:26:46.770Z,100463.78
2022-08-26T05:29:14.212Z,100475.63
2022-08-26T05:31:42.987Z,100480.31
2022-08-26T05:34:10.486Z,100479.47
2022-08-26T05:36:38.868Z,100477.56
2022-08-26T05:39:06.727Z,100474.81
2022-08-26T05:41:36.601Z,100479.47
2022-08-26T05:44:09.358Z,100475.91
2022-08-26T05:46:37.099Z,100476.44
2022-08-26T05:49:06.247Z,100475.63
2022-08-26T05:51:41.516Z,100481.94
2022-08-26T05:54:10.440Z,100483.91
2022-08-26T05:56:38.784Z,100485.84
2022-08-26T05:59:14.201Z,100487.47
2022-08-26T06:01:43.575Z,100494.66
2022-08-26T06:04:12.684Z,100491.88
2022-08-26T06:06:41.654Z,100498.50
2022-08-26T06:09:11.177Z,100491.03
2022-08-26T06:11:39.226Z,100501.25
2022-08-26T06:14:10.373Z,100505.13
2022-08-26T06:16:40.914Z,100497.66
2022-08-26T06:19:10.794Z,100501.25
2022-08-26T06:21:40.169Z,100500.16
2022-08-26T06:24:28.148Z,100506.50
2022-08-26T06:26:57.093Z,100502.59
2022-08-26T06:29:25.898Z,100512.81
2022-08-26T06:31:56.475Z,100517.50
2022-08-26T06:34:26.607Z,100509.25
2022-08-26T06:36:58.655Z,100512.81
2022-08-26T06:39:26.196Z,100513.63
2022-08-26T06:41:54.157Z,100511.19
2022-08-26T06:44:25.843Z,100513.63
2022-08-26T06:46:53.558Z,100518.88
2022-08-26T06:49:26.827Z,100517.25
2022-08-26T06:51:59.110Z,100513.34
2022-08-26T06:54:31.544Z,100514.47
2022-08-26T06:56:59.164Z,100511.72
2022-08-26T06:59:26.561Z,100503.47
2022-08-26T07:01:54.794Z,100509.25
2022-08-26T07:04:23.226Z,100508.97
2022-08-26T07:06:52.640Z,100507.03
2022-08-26T07:09:24.888Z,100505.38
2022-08-26T07:11:56.120Z,100504.28
2022-08-26T07:14:25.317Z,100510.59
2022-08-26T07:16:54.052Z,100509.50
2022-08-26T07:19:29.845Z,100510.34
2022-08-26T07:22:02.098Z,100511.16
2022-08-26T07:24:35.701Z,100515.03
2022-08-26T07:27:06.582Z,100504.81
2022-08-26T07:29:34.807Z,100513.09
2022-08-26T07:32:03.548Z,100507.56
2022-08-26T07:34:34.228Z,100515.56
2022-08-26T07:37:02.113Z,100511.97
2022-08-26T07:39:31.430Z,100510.88
2022-08-26T07:42:07.387Z,100509.22
2022-08-26T07:44:36.831Z,100513.63
2022-08-26T07:47:10.247Z,100517.22
2022-08-26T07:49:52.901Z,100519.97
2022-08-26T07:52:26.230Z,100514.44
2022-08-26T07:54:58.181Z,100522.72
2022-08-26T07:57:26.609Z,100511.69
2022-08-26T07:59:55.240Z,100512.50
2022-08-26T08:02:23.308Z,100516.94
2022-08-26T08:04:51.774Z,100518.03
2022-08-26T08:07:19.494Z,100514.44
2022-08-26T08:09:49.581Z,100507.31
2022-08-26T08:12:17.951Z,100509.75
2022-08-26T08:14:46.882Z,100508.94
2022-08-26T08:17:16.173Z,100514.44
2022-08-26T08:19:43.698Z,100506.19
2022-08-26T08:22:17.401Z,100505.38
2022-08-26T08:24:45.455Z,100505.09
2022-08-26T08:27:22.862Z,100507.00
2022-08-26T08:29:54.270Z,100510.56
2022-08-26T08:32:23.034Z,100503.69
2022-08-26T08:34:50.478Z,100503.97
2022-08-26T08:37:17.938Z,100503.97
2022-08-26T08:39:45.746Z,100509.75
2022-08-26T08:42:31.826Z,100503.41
2022-08-26T08:45:01.666Z,100502.34
2022-08-26T08:47:47.438Z,100503.41
2022-08-26T08:50:23.396Z,100497.63
2022-08-26T08:53:31.781Z,100503.41
2022-08-26T08:56:11.549Z,100486.59
2022-08-26T09:01:52.469Z,100496.81
2022-08-26T09:04:33.318Z,100495.69
2022-08-26T09:07:02.245Z,100482.19
2022-08-26T09:09:50.175Z,100487.16
2022-08-26T09:12:20.808Z,100483.84
2022-08-26T09:15:18.928Z,100477.53
2022-08-26T09:18:23.567Z,100479.44
2022-08-26T09:21:05.259Z,100482.19
2022-08-26T09:23:36.268Z,100486.88
2022-08-26T09:26:22.038Z,100481.38
2022-08-26T09:29:03.006Z,100477.53
2022-08-26T09:31:37.274Z,100477.53
2022-08-26T09:34:07.439Z,100483.03
2022-08-26T09:36:41.355Z,100470.34
2022-08-26T09:39:24.225Z,100473.91
2022-08-26T09:42:05.142Z,100465.91
2022-08-26T09:44:32.860Z,100465.09
2022-08-26T09:47:03.321Z,100467.31
2022-08-26T09:49:41.153Z,100460.97
2022-08-26T09:52:23.477Z,100462.91
2022-08-26T09:55:21.489Z,100463.75
2022-08-26T09:57:54.046Z,100462.63
2022-08-26T10:00:30.828Z,100460.13
2022-08-26T10:03:03.588Z,100466.50
2022-08-26T10:05:34.535Z,100460.97
2022-08-26T10:08:20.080Z,100454.63
2022-08-26T10:10:53.328Z,100449.66
2022-08-26T10:13:31.482Z,100445.53
2022-08-26T10:16:16.300Z,100448.84
2022-08-26T10:19:07.680Z,100445.25
2022-08-26T10:21:54.106Z,100445.25
2022-08-26T10:24:36.648Z,100437.81
2022-08-26T10:27:25.921Z,100430.34
2022-08-26T10:29:55.521Z,100425.69
2022-08-26T10:32:24.953Z,100431.47
2022-08-26T10:34:54.020Z,100426.78
2022-08-26T10:37:22.777Z,100419.63
2022-08-26T10:40:02.853Z,100425.16
2022-08-26T10:42:49.328Z,100418.50
2022-08-26T10:45:22.253Z,100418.50
2022-08-26T10:48:16.925Z,100417.69
2022-08-26T10:50:47.665Z,100412.72
2022-08-26T10:53:24.917Z,100416.56
2022-08-26T10:56:05.433Z,100413.81
2022-08-26T10:58:53.531Z,100403.91
2022-08-26T11:01:46.890Z,100408.31
2022-08-26T11:04:35.101Z,100403.63
2022-08-26T11:07:39.221Z,100397.28
2022-08-26T11:10:22.528Z,100395.38
2022-08-26T11:13:02.231Z,100392.06
2022-08-26T11:15:29.613Z,100398.13
2022-08-26T11:18:01.298Z,100386.56
2022-08-26T11:20:41.968Z,100385.72
2022-08-26T11:23:12.387Z,100390.94
2022-08-26T11:25:58.956Z,100390.13
2022-08-26T11:28:45.974Z,100388.19
2022-08-26T11:31:26.769Z,100384.34
2022-08-26T11:33:57.040Z,100379.66
2022-08-26T11:36:33.582Z,100381.88
2022-08-26T11:39:02.819Z,100385.44
2022-08-26T11:41:34.200Z,100373.31
2022-08-26T11:44:07.092Z,100372.47
2022-08-26T11:46:37.636Z,100374.41
2022-08-26T11:49:06.422Z,100372.47
2022-08-26T11:51:38.219Z,100371.66
2022-08-26T11:54:15.151Z,100368.91
2022-08-26T11:56:45.124Z,100369.72
2022-08-26T11:59:15.616Z,100363.91
2022-08-26T12:01:44.235Z,100362.00
2022-08-26T12:04:13.924Z,100357.59
2022-08-26T12:06:49.132Z,100354.03
2022-08-26T12:09:36.467Z,100348.50
2022-08-26T12:12:17.127Z,100351.81
2022-08-26T12:14:47.679Z,100343.81
2022-08-26T12:17:17.149Z,100336.34
2022-08-26T12:19:46.727Z,100330.84
2022-08-26T12:22:17.188Z,100334.72
2022-08-26T12:25:01.562Z,100327.28
2022-08-26T12:27:43.692Z,100326.47
2022-08-26T12:30:21.358Z,100327.00
2022-08-26T12:32:58.202Z,100321.47
2022-08-26T12:35:28.900Z,100310.47
2022-08-26T12:37:57.632Z,100314.31
2022-08-26T12:40:30.868Z,100309.06
2022-08-26T12:43:00.475Z,100296.94
2022-08-26T12:45:34.962Z,100311.28
2022-08-26T12:48:11.080Z,100296.66
2022-08-26T12:50:40.186Z,100299.72
2022-08-26T12:53:10.577Z,100289.50
2022-08-26T12:55:39.178Z,100281.22
2022-08-26T12:58:15.782Z,100279.59
2022-08-26T13:00:48.208Z,100270.19
2022-08-26T13:03:33.991Z,100271.06
2022-08-26T13:06:22.571Z,100275.72
2022-08-26T13:08:53.875Z,100264.69
2022-08-26T13:11:29.463Z,100272.16
2022-08-26T13:14:10.591Z,100266.63
2022-08-26T13:16:39.392Z,100266.34
2022-08-26T13:19:10.570Z,100258.91
2022-08-26T13:21:46.197Z,100256.13
2022-08-26T13:24:19.051Z,100251.75
2022-08-26T13:26:47.917Z,100245.13
2022-08-26T13:29:16.541Z,100252.28
2022-08-26T13:31:44.508Z,100247.06
2022-08-26T13:34:18.282Z,100238.78
2022-08-26T13:36:46.858Z,100245.13
2022-08-26T13:39:14.313Z,100241.25
2022-08-26T13:41:43.337Z,100237.66
2022-08-26T13:44:10.826Z,100234.91
2022-08-26T13:46:38.484Z,100239.59
2022-08-26T13:49:07.412Z,100236.84
2022-08-26T13:51:35.091Z,100239.59
2022-08-26T13:54:02.614Z,100227.75
2022-08-26T13:56:30.170Z,100226.63
2022-08-26T13:58:58.189Z,100229.38
2022-08-26T14:01:26.145Z,100226.63
2022-08-26T14:03:53.661Z,100223.88
2022-08-26T14:06:21.579Z,100218.38
2022-08-26T14:08:49.541Z,100212.03
2022-08-26T14:11:17.234Z,100216.44
2022-08-26T14:13:44.737Z,100213.38
2022-08-26T14:16:28.074Z,100206.53
2022-08-26T14:18:55.653Z,100214.50
2022-08-26T14:21:23.148Z,100215.31
2022-08-26T14:23:50.635Z,100210.63
2022-08-26T14:26:27.884Z,100207.88
2022-08-26T14:29:01.170Z,100208.72
2022-08-26T14:31:29.530Z,100209.81
2022-08-26T14:33:58.433Z,100215.31
2022-08-26T14:36:32.435Z,100208.72
2022-08-26T14:39:01.922Z,100203.44
2022-08-26T14:41:32.891Z,100198.75
2022-08-26T14:44:02.498Z,100203.22
2022-08-26T14:46:31.831Z,100196.84
2022-08-26T14:49:01.833Z,100204.31
2022-08-26T14:51:30.050Z,100189.69
2022-08-26T14:54:12.854Z,100189.41
2022-08-26T14:56:50.311Z,100185.00
2022-08-26T14:59:25.447Z,100185.00
2022-08-26T15:01:53.511Z,100181.16
2022-08-26T15:04:21.246Z,100181.16
2022-08-26T15:06:48.940Z,100175.91
2022-08-26T15:09:16.411Z,100190.22
2022-08-26T15:11:44.018Z,100183.06
2022-08-26T15:14:19.455Z,100189.41
2022-08-26T15:16:48.886Z,100179.50
2022-08-26T15:19:16.846Z,100183.06
2022-08-26T15:21:46.378Z,100179.50
2022-08-26T15:24:14.817Z,100175.91
2022-08-26T15:26:43.014Z,100185.00
2022-08-26T15:29:10.537Z,100187.75
2022-08-26T15:31:38.080Z,100177.88
2022-08-26T15:34:12.102Z,100182.25
2022-08-26T15:36:44.938Z,100182.25
2022-08-26T15:39:12.524Z,100184.47
2022-08-26T15:41:41.142Z,100187.75
2022-08-26T15:44:10.882Z,100190.53
2022-08-26T15:46:38.772Z,100196.31
2022-08-26T15:49:07.053Z,100193.00
2022-08-26T15:51:45.649Z,100190.53
2022-08-26T15:54:14.150Z,100191.34
2022-08-26T15:56:44.349Z,100184.19
2022-08-26T15:59:12.085Z,100186.66
2022-08-26T16:01:39.723Z,100190.53
2022-08-26T16:04:09.072Z,100187.75
2022-08-26T16:06:37.634Z,100196.84
2022-08-26T16:09:06.551Z,100190.53
2022-08-26T16:11:35.988Z,100196.84
2022-08-26T16:14:04.678Z,100196.84
2022-08-26T16:16:32.366Z,100193.28
2022-08-26T16:19:02.277Z,100192.47
2022-08-26T16:21:33.245Z,100196.84
2022-08-26T16:24:00.741Z,100199.59
2022-08-26T16:26:29.238Z,100204.84
2022-08-26T16:28:56.739Z,100197.69
2022-08-26T16:31:24.312Z,100203.22
2022-08-26T16:33:51.789Z,100194.94
2022-08-26T16:36:19.955Z,100196.84
2022-08-26T16:38:50.267Z,100193.56
2022-08-26T16:41:17.805Z,100199.59
2022-08-26T16:43:45.527Z,100200.44
2022-08-26T16:46:14.224Z,100189.41
2022-08-26T16:48:45.453Z,100188.56
2022-08-26T16:51:13.604Z,100196.03
2022-08-26T16:53:41.159Z,100193.00
2022-08-26T16:56:15.340Z,100202.34
2022-08-26T16:58:44.142Z,100205.09
2022-08-26T17:01:11.598Z,100193.25
2022-08-26T17:03:39.108Z,100197.38
2022-08-26T17:06:06.857Z,100191.34
2022-08-26T17:08:36.403Z,100194.94
2022-08-26T17:11:03.834Z,100194.94
2022-08-26T17:13:35.496Z,100190.53
2022-08-26T17:16:05.704Z,100185.81
2022-08-26T17:18:33.588Z,100191.34
2022-08-26T17:21:02.747Z,100187.75
2022-08-26T17:23:30.334Z,100196.84
2022-08-26T17:25:57.922Z,100193.28
2022-08-26T17:28:25.378Z,100204.84
2022-08-26T17:30:55.326Z,100200.44
2022-08-26T17:33:24.588Z,100204.03
2022-08-26T17:35:53.616Z,100203.22
2022-08-26T17:38:21.237Z,100195.75
2022-08-26T17:40:49.643Z,100198.50
2022-08-26T17:43:17.811Z,100200.44
2022-08-26T17:45:45.331Z,100202.88
2022-08-26T17:48:13.043Z,100194.94
2022-08-26T17:50:41.387Z,100202.06
2022-08-26T17:53:08.994Z,100202.06
2022-08-26T17:55:41.735Z,100191.06
2022-08-26T17:58:14.651Z,100186.34
2022-08-26T18:00:49.270Z,100189.41
2022-08-26T18:03:16.778Z,100194.63
2022-08-26T18:05:47.487Z,100189.41
2022-08-26T18:08:17.865Z,100198.50
2022-08-26T18:10:45.350Z,100193.81
2022-08-26T18:13:14.813Z,100194.94
2022-08-26T18:15:43.531Z,100191.88
2022-08-26T18:18:12.019Z,100200.13
2022-08-26T18:20:39.914Z,100191.06
2022-08-26T18:23:07.836Z,100202.06
2022-08-26T18:25:38.088Z,100207.59
2022-08-26T18:28:06.470Z,100205.66
2022-08-26T18:30:34.049Z,100206.50
2022-08-26T18:33:01.615Z,100206.50
2022-08-26T18:35:30.337Z,100202.06
2022-08-26T18:37:58.260Z,100202.88
2022-08-26T18:40:28.932Z,100206.50
2022-08-26T18:42:56.381Z,100208.41
2022-08-26T18:45:25.351Z,100212.81
2022-08-26T18:47:52.739Z,100202.88
2022-08-26T18:50:20.361Z,100213.91
2022-08-26T18:52:47.800Z,100207.31
2022-08-26T18:55:15.932Z,100208.41
2022-08-26T18:57:43.371Z,100214.75
2022-08-26T19:00:11.455Z,100208.41
2022-08-26T19:02:41.480Z,100212.00
2022-08-26T19:05:14.557Z,100213.91
2022-08-26T19:07:42.636Z,100214.75
2022-08-26T19:10:13.219Z,100202.06
2022-08-26T19:12:41.184Z,100211.16
2022-08-26T19:15:08.892Z,100214.75
2022-08-26T19:17:36.400Z,100213.91
2022-08-26T19:20:07.472Z,100209.25
2022-08-26T19:22:34.939Z,100209.25
2022-08-26T19:25:02.447Z,100216.69
2022-08-26T19:27:30.148Z,100220.56
2022-08-26T19:29:57.644Z,100220.56
2022-08-26T19:32:25.346Z,100219.44
2022-08-26T19:34:52.923Z,100223.03
2022-08-26T19:37:21.718Z,100223.84
2022-08-26T19:39:51.834Z,100220.28
2022-08-26T19:42:19.414Z,100221.38
2022-08-26T19:45:05.522Z,100215.03
2022-08-26T19:47:33.376Z,100229.38
2022-08-26T19:50:01.008Z,100223.56
2022-08-26T19:52:30.355Z,100224.94
2022-08-26T19:54:58.605Z,100222.19
2022-08-26T19:57:26.097Z,100225.78
2022-08-26T19:59:53.557Z,100216.69
2022-08-26T20:02:21.058Z,100221.38
2022-08-26T20:04:48.568Z,100219.44
2022-08-26T20:07:18.869Z,100219.75
2022-08-26T20:09:48.087Z,100219.75
2022-08-26T20:12:15.609Z,100215.84
2022-08-26T20:14:43.187Z,100217.81
2022-08-26T20:17:10.866Z,100215.56
2022-08-26T20:19:56.734Z,100220.28
2022-08-26T20:22:24.246Z,100216.41
2022-08-26T20:24:52.189Z,100218.34
2022-08-26T20:27:19.813Z,100225.78
2022-08-26T20:29:47.258Z,100222.50
2022-08-26T20:32:14.756Z,100223.31
2022-08-26T20:34:42.725Z,100226.06
2022-08-26T20:37:13.129Z,100227.69
2022-08-26T20:39:42.092Z,100228.53
2022-08-26T20:42:19.791Z,100227.69
2022-08-26T20:44:54.352Z,100227.69
2022-08-26T20:47:23.201Z,100221.66
2022-08-26T20:49:52.558Z,100224.41
2022-08-26T20:52:20.273Z,100222.19
2022-08-26T20:54:47.740Z,100230.47
2022-08-26T20:57:15.255Z,100231.31
2022-08-26T20:59:43.600Z,100229.66
2022-08-26T21:02:11.126Z,100230.47
2022-08-26T21:04:38.719Z,100239.56
2022-08-26T21:07:08.637Z,100242.34
2022-08-26T21:09:36.088Z,100243.16
2022-08-26T21:12:04.615Z,100247.00
2022-08-26T21:14:34.849Z,100237.91
2022-08-26T21:17:02.639Z,100241.47
2022-08-26T21:19:30.117Z,100237.91
2022-08-26T21:22:00.047Z,100248.13
2022-08-26T21:24:27.645Z,100245.38
2022-08-26T21:26:55.097Z,100243.44
2022-08-26T21:29:22.572Z,100239.84
2022-08-26T21:31:50.204Z,100247.00
2022-08-26T21:34:18.543Z,100237.91
2022-08-26T21:36:46.552Z,100244.25
2022-08-26T21:39:17.121Z,100241.81
2022-08-26T21:41:44.709Z,100248.94
2022-08-26T21:44:12.915Z,100241.47
2022-08-26T21:46:40.564Z,100239.03
2022-08-26T21:49:09.455Z,100229.66
2022-08-26T21:51:41.762Z,100233.53
2022-08-26T21:54:11.322Z,100235.97
2022-08-26T21:56:44.287Z,100226.06
2022-08-26T21:59:12.283Z,100230.47
2022-08-26T22:01:39.852Z,100228.84
2022-08-26T22:04:10.753Z,100224.13
2022-08-26T22:06:45.966Z,100222.50
2022-08-26T22:09:14.161Z,100224.41
2022-08-26T22:11:41.710Z,100229.66
2022-08-26T22:14:09.255Z,100227.69
2022-08-26T22:16:37.034Z,100218.63
2022-08-26T22:19:04.585Z,100219.44
2022-08-26T22:21:32.223Z,100218.63
2022-08-26T22:23:59.689Z,100217.81
2022-08-26T22:26:28.789Z,100228.00
2022-08-26T22:28:58.718Z,100225.25
2022-08-26T22:31:38.116Z,100216.16
2022-08-26T22:34:07.777Z,100215.03
2022-08-26T22:36:35.998Z,100221.38
2022-08-26T22:39:07.325Z,100221.38
2022-08-26T22:41:38.082Z,100217.81
2022-08-26T22:44:05.583Z,100221.66
2022-08-26T22:46:34.863Z,100218.91
2022-08-26T22:49:04.565Z,100214.22
2022-08-26T22:51:32.203Z,100218.91
2022-08-26T22:53:59.637Z,100219.75
2022-08-26T22:56:27.041Z,100219.75
2022-08-26T22:58:54.546Z,100220.03
2022-08-26T23:01:22.065Z,100215.59
2022-08-26T23:03:49.659Z,100224.41
2022-08-26T23:06:17.145Z,100224.41
2022-08-26T23:08:46.374Z,100218.91
2022-08-26T23:11:13.882Z,100221.66
2022-08-26T23:13:41.310Z,100220.84
2022-08-26T23:16:10.225Z,100223.59
2022-08-26T23:18:38.453Z,100224.41
2022-08-26T23:21:06.239Z,100228.84
2022-08-26T23:23:33.740Z,100233.53
2022-08-26T23:26:05.550Z,100234.63
2022-08-26T23:28:36.011Z,100228.28
2022-08-26T23:31:03.809Z,100227.16
2022-08-26T23:33:51.942Z,100223.59
2022-08-26T23:36:22.831Z,100225.25
2022-08-26T23:38:52.589Z,100221.66
2022-08-26T23:41:24.460Z,100220.84
2022-08-26T23:43:52.044Z,100207.88
2022-08-26T23:46:19.725Z,100216.16
2022-08-26T23:48:47.390Z,100218.91
2022-08-26T23:51:33.525Z,100224.41
2022-08-26T23:54:01.035Z,100223.59
2022-08-26T23:56:29.149Z,100222.78
2022-08-26T23:58:56.677Z,100229.38
